Time;durP1;ratioP1;P1;durP2;ratioP2;P2;SDS_P1;SDS_P2;PMS_P1;PMS_P2;Temp;Humidity;BMP_temperature;BMP_pressure;BME280_temperature;BME280_humidity;BME280_pressure;Samples;Min_cycle;Max_cycle;Signal;HPM_P1;HPM_P2
2022/07/03 00:01:25;;;;;;;;;;;17.20;95.60;;;;;;5082970;28;20405;-76
2022/07/03 00:03:52;;;;;;;;;;;18.80;96.50;;;;;;5081472;28;20015;-77
2022/07/03 00:06:19;;;;;;;;;;;17.10;96.00;;;;;;5081266;28;19932;-76
2022/07/03 00:08:46;;;;;;;;;;;17.00;96.10;;;;;;5082018;28;19928;-77
2022/07/03 00:11:13;;;;;;;;;;;17.00;96.40;;;;;;5097900;28;19927;-76
2022/07/03 00:13:41;;;;;;;;;;;16.90;96.60;;;;;;5083056;28;19947;-77
2022/07/03 00:16:08;;;;;;;;;;;18.80;97.70;;;;;;5083302;28;20298;-77
2022/07/03 00:18:34;;;;;;;;;;;16.90;97.00;;;;;;5083032;28;19935;-76
2022/07/03 00:21:02;;;;;;;;;;;16.90;97.30;;;;;;5083114;28;19928;-76
2022/07/03 00:23:30;;;;;;;;;;;16.80;97.50;;;;;;5082917;28;19931;-77
2022/07/03 00:25:57;;;;;;;;;;;16.80;97.80;;;;;;5081860;28;19928;-76
2022/07/03 00:28:24;;;;;;;;;;;16.80;97.70;;;;;;5082028;28;19944;-77
2022/07/03 00:30:53;;;;;;;;;;;16.70;98.20;;;;;;5081256;28;20237;-78
2022/07/03 00:33:20;;;;;;;;;;;16.80;98.30;;;;;;5082306;28;20409;-79
2022/07/03 00:35:47;;;;;;;;;;;16.80;98.90;;;;;;5082683;28;19935;-77
2022/07/03 00:38:14;;;;;;;;;;;16.90;99.30;;;;;;5081263;28;19931;-77
2022/07/03 00:40:41;;;;;;;;;;;16.90;99.50;;;;;;5083161;28;19942;-76
2022/07/03 00:43:09;;;;;;;;;;;16.90;99.70;;;;;;5081925;28;19924;-75
2022/07/03 00:45:36;;;;;;;;;;;16.90;99.80;;;;;;5081949;28;19927;-76
2022/07/03 00:48:06;;;;;;;;;;;16.90;99.90;;;;;;5081897;28;19939;-76
2022/07/03 00:50:34;;;;;;;;;;;16.90;99.90;;;;;;5095295;28;19928;-76
2022/07/03 00:53:02;;;;;;;;;;;16.90;99.90;;;;;;5081812;28;20406;-76
2022/07/03 00:55:29;;;;;;;;;;;16.90;99.90;;;;;;5081824;28;19936;-77
2022/07/03 00:57:57;;;;;;;;;;;16.80;99.90;;;;;;5080476;28;19927;-76
2022/07/03 01:00:24;;;;;;;;;;;16.80;99.90;;;;;;5080787;28;20022;-76
2022/07/03 01:02:52;;;;;;;;;;;16.80;99.90;;;;;;5081148;28;20407;-79
2022/07/03 01:05:26;;;;;;;;;;;16.70;99.90;;;;;;5080944;28;20442;-75
2022/07/03 01:07:59;;;;;;;;;;;15.80;99.90;;;;;;5080263;28;19937;-77
2022/07/03 01:10:32;;;;;;;;;;;16.60;99.90;;;;;;5080704;28;19935;-76
2022/07/03 01:13:04;;;;;;;;;;;16.60;99.90;;;;;;5081219;28;19928;-76
2022/07/03 01:15:37;;;;;;;;;;;16.20;99.90;;;;;;5083197;28;20274;-76
2022/07/03 01:18:12;;;;;;;;;;;16.50;99.90;;;;;;5083135;28;20022;-76
2022/07/03 01:20:42;;;;;;;;;;;16.40;99.90;;;;;;5089032;28;20022;-77
2022/07/03 01:23:18;;;;;;;;;;;16.30;99.90;;;;;;5098257;28;20382;-76
2022/07/03 01:25:47;;;;;;;;;;;16.30;99.90;;;;;;5091310;28;19969;-76
2022/07/03 01:28:15;;;;;;;;;;;16.20;99.90;;;;;;5084952;28;19928;-76
2022/07/03 01:30:43;;;;;;;;;;;16.20;99.90;;;;;;5082677;28;19928;-78
2022/07/03 01:33:11;;;;;;;;;;;16.20;99.90;;;;;;5096430;28;19939;-77
2022/07/03 01:35:39;;;;;;;;;;;16.30;99.90;;;;;;5082673;28;19928;-75
2022/07/03 01:38:07;;;;;;;;;;;16.30;99.90;;;;;;5080438;28;20400;-75
2022/07/03 01:40:34;;;;;;;;;;;16.30;99.90;;;;;;5077539;28;19928;-77
2022/07/03 01:43:04;;;;;;;;;;;14.20;99.90;;;;;;5078158;28;19950;-76
2022/07/03 01:45:32;;;;;;;;;;;16.20;99.90;;;;;;5078691;28;20407;-76
2022/07/03 01:47:59;;;;;;;;;;;16.20;99.90;;;;;;5078138;28;19924;-76
2022/07/03 01:50:27;;;;;;;;;;;16.20;99.90;;;;;;5077169;28;20698;-75
2022/07/03 01:52:54;;;;;;;;;;;16.20;99.90;;;;;;5076706;28;19932;-76
2022/07/03 01:55:21;;;;;;;;;;;16.20;99.90;;;;;;5077939;28;19947;-76
2022/07/03 01:57:48;;;;;;;;;;;16.10;99.90;;;;;;5070091;28;20280;-76
2022/07/03 02:00:18;;;;;;;;;;;17.80;99.90;;;;;;5076975;28;20004;-75
2022/07/03 02:02:50;;;;;;;;;;;16.00;99.90;;;;;;5076502;28;19934;-75
2022/07/03 02:05:27;;;;;;;;;;;16.50;99.90;;;;;;5079038;28;20317;-77
2022/07/03 02:07:56;;;;;;;;;;;15.90;99.90;;;;;;5078520;28;19928;-78
2022/07/03 02:10:28;;;;;;;;;;;15.90;99.90;;;;;;5084520;28;19935;-78
2022/07/03 02:12:58;;;;;;;;;;;15.80;99.90;;;;;;5085056;28;19924;-77
2022/07/03 02:15:29;;;;;;;;;;;15.80;99.90;;;;;;5086385;28;19959;-78
2022/07/03 02:17:57;;;;;;;;;;;15.70;99.90;;;;;;5084743;28;19935;-76
2022/07/03 02:20:25;;;;;;;;;;;15.70;99.90;;;;;;5084894;28;19927;-77
2022/07/03 02:22:55;;;;;;;;;;;15.70;99.90;;;;;;5084303;28;19927;-77
2022/07/03 02:25:23;;;;;;;;;;;15.60;99.90;;;;;;5085042;28;20408;-78
2022/07/03 02:27:54;;;;;;;;;;;15.70;99.90;;;;;;5084170;28;19947;-78
2022/07/03 02:30:23;;;;;;;;;;;15.70;99.90;;;;;;5085346;28;19924;-77
2022/07/03 02:32:51;;;;;;;;;;;15.70;99.90;;;;;;5084935;28;20438;-76
2022/07/03 02:35:19;;;;;;;;;;;16.40;99.90;;;;;;5085326;28;19983;-77
2022/07/03 02:37:48;;;;;;;;;;;15.70;99.90;;;;;;5083178;28;20393;-75
2022/07/03 02:40:21;;;;;;;;;;;15.70;99.90;;;;;;5084604;28;20026;-75
2022/07/03 02:42:55;;;;;;;;;;;15.70;99.90;;;;;;5084507;28;19935;-75
2022/07/03 02:45:23;;;;;;;;;;;15.60;99.90;;;;;;5083303;28;19928;-75
2022/07/03 02:47:55;;;;;;;;;;;15.60;99.90;;;;;;5083018;28;19924;-75
2022/07/03 02:50:23;;;;;;;;;;;15.60;99.90;;;;;;5085670;28;19995;-75
2022/07/03 02:52:59;;;;;;;;;;;15.60;99.90;;;;;;5084144;28;19928;-75
2022/07/03 02:55:32;;;;;;;;;;;15.50;99.90;;;;;;5085095;28;19928;-75
2022/07/03 02:58:06;;;;;;;;;;;15.50;99.90;;;;;;5084193;28;19929;-77
2022/07/03 03:00:35;;;;;;;;;;;15.50;99.90;;;;;;5083437;28;19935;-76
2022/07/03 03:03:04;;;;;;;;;;;15.40;99.90;;;;;;5083684;28;19978;-76
2022/07/03 03:05:35;;;;;;;;;;;15.40;99.90;;;;;;5084987;28;19940;-77
2022/07/03 03:08:06;;;;;;;;;;;15.30;99.90;;;;;;5084723;28;20416;-76
2022/07/03 03:10:35;;;;;;;;;;;15.30;99.90;;;;;;5096076;28;19928;-75
2022/07/03 03:13:04;;;;;;;;;;;15.30;99.90;;;;;;5083255;28;19931;-75
2022/07/03 03:15:31;;;;;;;;;;;15.20;99.90;;;;;;5085343;28;19928;-75
2022/07/03 03:18:02;;;;;;;;;;;15.20;99.90;;;;;;5083234;28;19972;-76
2022/07/03 03:20:32;;;;;;;;;;;15.20;99.90;;;;;;5083393;28;19920;-76
2022/07/03 03:23:04;;;;;;;;;;;15.10;99.90;;;;;;5078568;28;19935;-76
2022/07/03 03:25:31;;;;;;;;;;;15.10;99.90;;;;;;5084488;28;19963;-76
2022/07/03 03:27:59;;;;;;;;;;;15.00;99.90;;;;;;5083630;28;19931;-75
2022/07/03 03:30:26;;;;;;;;;;;15.00;99.90;;;;;;5083292;28;19928;-75
2022/07/03 03:32:53;;;;;;;;;;;15.00;99.90;;;;;;5081813;28;19932;-75
2022/07/03 03:35:19;;;;;;;;;;;15.00;99.90;;;;;;5083205;28;19928;-75
2022/07/03 03:37:48;;;;;;;;;;;14.90;99.90;;;;;;5081922;28;20163;-75
2022/07/03 03:40:15;;;;;;;;;;;14.90;99.90;;;;;;5077417;28;19982;-76
2022/07/03 03:42:42;;;;;;;;;;;14.90;99.90;;;;;;5071433;28;19924;-76
2022/07/03 03:45:09;;;;;;;;;;;14.90;99.90;;;;;;5082292;28;20279;-76
2022/07/03 03:47:36;;;;;;;;;;;14.90;99.90;;;;;;5091212;28;19924;-76
2022/07/03 03:50:03;;;;;;;;;;;14.80;99.90;;;;;;5088964;28;19923;-77
2022/07/03 03:52:30;;;;;;;;;;;14.80;99.90;;;;;;5083341;28;19931;-78
2022/07/03 03:54:58;;;;;;;;;;;14.80;99.90;;;;;;5090021;28;20178;-77
2022/07/03 03:57:25;;;;;;;;;;;14.80;99.90;;;;;;5083664;28;19921;-76
2022/07/03 03:59:52;;;;;;;;;;;14.80;99.90;;;;;;5087061;28;20270;-76
2022/07/03 04:02:19;;;;;;;;;;;14.90;99.90;;;;;;5082416;28;19920;-76
2022/07/03 04:04:46;;;;;;;;;;;14.90;99.90;;;;;;5070055;28;19935;-77
2022/07/03 04:07:16;;;;;;;;;;;14.90;99.90;;;;;;5070656;28;20337;-76
2022/07/03 04:09:42;;;;;;;;;;;15.00;99.90;;;;;;5070967;28;19931;-77
2022/07/03 04:12:11;;;;;;;;;;;15.10;99.90;;;;;;5068882;28;19920;-76
2022/07/03 04:14:38;;;;;;;;;;;15.20;99.90;;;;;;5073665;28;19920;-76
2022/07/03 04:17:05;;;;;;;;;;;15.30;99.90;;;;;;5078273;28;20072;-77
2022/07/03 04:19:31;;;;;;;;;;;15.40;99.90;;;;;;5085331;28;19986;-76
2022/07/03 04:21:58;;;;;;;;;;;15.50;99.90;;;;;;5073215;28;20399;-77
2022/07/03 04:24:25;;;;;;;;;;;15.60;99.90;;;;;;5081887;28;19920;-77
2022/07/03 04:26:52;;;;;;;;;;;15.70;99.90;;;;;;5090530;28;19924;-76
2022/07/03 04:29:20;;;;;;;;;;;15.80;99.90;;;;;;5083608;28;19924;-77
2022/07/03 04:31:47;;;;;;;;;;;16.00;99.90;;;;;;5076711;28;19936;-78
2022/07/03 04:34:13;;;;;;;;;;;16.00;99.90;;;;;;5079100;28;19924;-77
2022/07/03 04:36:40;;;;;;;;;;;16.10;99.90;;;;;;5078755;28;19965;-77
2022/07/03 04:39:07;;;;;;;;;;;16.10;99.90;;;;;;5079665;28;19947;-77
2022/07/03 04:41:34;;;;;;;;;;;16.20;99.90;;;;;;5085824;28;20417;-77
2022/07/03 04:44:00;;;;;;;;;;;16.20;99.90;;;;;;5089736;28;20321;-79
2022/07/03 04:46:28;;;;;;;;;;;16.20;99.90;;;;;;5090595;28;20351;-77
2022/07/03 04:48:55;;;;;;;;;;;16.20;99.90;;;;;;5089813;28;19923;-77
2022/07/03 04:51:22;;;;;;;;;;;16.30;99.90;;;;;;5089899;28;19924;-77
2022/07/03 04:53:48;;;;;;;;;;;16.30;99.90;;;;;;5090622;28;20014;-77
2022/07/03 04:56:15;;;;;;;;;;;16.40;99.90;;;;;;5088497;28;19927;-77
2022/07/03 04:58:42;;;;;;;;;;;16.40;99.90;;;;;;5088339;28;20577;-76
2022/07/03 05:01:08;;;;;;;;;;;16.50;99.90;;;;;;5086646;28;20014;-76
2022/07/03 05:03:37;;;;;;;;;;;16.30;99.90;;;;;;5089218;28;19924;-76
2022/07/03 05:06:03;;;;;;;;;;;16.70;99.90;;;;;;5079102;28;19934;-77
2022/07/03 05:08:30;;;;;;;;;;;16.70;99.90;;;;;;5079942;28;20297;-76
2022/07/03 05:10:57;;;;;;;;;;;16.80;99.90;;;;;;5081293;28;19924;-76
2022/07/03 05:13:23;;;;;;;;;;;16.90;99.90;;;;;;5080680;28;19923;-76
2022/07/03 05:15:50;;;;;;;;;;;17.10;99.90;;;;;;5087980;28;20377;-76
2022/07/03 05:18:17;;;;;;;;;;;17.20;99.90;;;;;;5087753;28;19932;-76
2022/07/03 05:20:45;;;;;;;;;;;18.80;99.90;;;;;;5073167;28;19933;-77
2022/07/03 05:23:12;;;;;;;;;;;17.50;99.90;;;;;;5073757;28;19988;-74
2022/07/03 05:25:38;;;;;;;;;;;17.60;99.90;;;;;;5079334;28;19920;-74
2022/07/03 05:28:05;;;;;;;;;;;17.90;99.90;;;;;;5084964;28;20232;-75
2022/07/03 05:30:32;;;;;;;;;;;;;;;;;;5067420;28;20065;-74
2022/07/03 05:32:59;;;;;;;;;;;18.10;99.90;;;;;;5069295;28;20610;-74
2022/07/03 05:35:25;;;;;;;;;;;18.40;99.90;;;;;;5071395;28;19931;-74
2022/07/03 05:37:53;;;;;;;;;;;20.30;99.90;;;;;;5085168;28;19931;-74
2022/07/03 05:40:20;;;;;;;;;;;20.30;99.90;;;;;;5086786;28;20313;-75
2022/07/03 05:42:47;;;;;;;;;;;22.00;99.90;;;;;;5082282;28;19935;-75
2022/07/03 05:45:13;;;;;;;;;;;23.70;99.90;;;;;;5092462;28;20132;-76
2022/07/03 05:47:40;;;;;;;;;;;25.30;99.90;;;;;;5092649;28;19923;-76
2022/07/03 05:50:07;;;;;;;;;;;26.70;99.90;;;;;;5092946;28;19927;-73
2022/07/03 05:52:34;;;;;;;;;;;28.20;99.90;;;;;;5086800;28;20312;-73
2022/07/03 05:55:02;;;;;;;;;;;29.60;99.90;;;;;;5084648;28;19924;-73
2022/07/03 05:57:29;;;;;;;;;;;30.90;99.90;;;;;;5093286;28;19927;-76
2022/07/03 05:59:56;;;;;;;;;;;32.00;99.90;;;;;;5092369;28;19923;-73
2022/07/03 06:02:22;;;;;;;;;;;32.90;99.90;;;;;;5089844;28;19928;-76
2022/07/03 06:04:49;;;;;;;;;;;33.70;99.90;;;;;;5090474;28;19935;-74
2022/07/03 06:07:16;;;;;;;;;;;34.40;99.90;;;;;;5091167;28;20015;-74
2022/07/03 06:09:43;;;;;;;;;;;35.30;99.90;;;;;;5092464;28;20018;-74
2022/07/03 06:12:13;;;;;;;;;;;35.80;95.50;;;;;;5072926;28;20024;-74
2022/07/03 06:14:39;;;;;;;;;;;36.30;92.80;;;;;;5072805;28;19920;-74
2022/07/03 06:17:07;;;;;;;;;;;36.80;91.40;;;;;;5071683;28;19924;-74
2022/07/03 06:19:34;;;;;;;;;;;37.40;91.30;;;;;;5073608;28;19921;-74
2022/07/03 06:22:00;;;;;;;11.00;4.78;;;37.90;86.10;;;;;;5086145;28;20607;-73
2022/07/03 06:24:27;;;;;;;14.15;4.88;;;38.50;81.30;;;;;;5087231;28;20203;-74
2022/07/03 06:26:54;;;;;;;12.10;4.82;;;39.30;79.30;;;;;;5084284;28;20199;-78
2022/07/03 06:29:22;;;;;;;14.65;5.07;;;39.40;74.60;;;;;;5097942;28;20215;-77
2022/07/03 06:31:49;;;;;;;10.32;4.72;;;39.30;71.00;;;;;;5082585;28;20211;-78
2022/07/03 06:34:16;;;;;;;11.70;4.95;;;39.20;69.40;;;;;;5089487;28;20223;-77
2022/07/03 06:36:43;;;;;;;10.40;4.25;;;39.40;67.60;;;;;;5080790;28;20275;-79
2022/07/03 06:39:10;;;;;;;11.05;5.05;;;39.40;68.90;;;;;;5089523;28;20739;-78
2022/07/03 06:41:37;;;;;;;13.90;4.82;;;39.20;65.70;;;;;;5093570;28;20207;-79
2022/07/03 06:44:04;;;;;;;17.23;5.18;;;39.30;65.60;;;;;;5075952;28;20201;-78
2022/07/03 06:46:32;;;;;;;10.57;4.47;;;39.70;65.00;;;;;;5092491;28;20207;-78
2022/07/03 06:48:59;;;;;;;13.57;4.95;;;40.10;63.70;;;;;;5082439;28;20232;-78
2022/07/03 06:51:26;;;;;;;9.60;4.43;;;40.10;61.80;;;;;;5086410;28;20582;-78
2022/07/03 06:53:54;;;;;;;9.45;4.30;;;;;;;;;;5093192;28;20227;-78
2022/07/03 06:56:20;;;;;;;10.00;4.25;;;40.60;57.60;;;;;;5087002;28;20287;-78
2022/07/03 06:58:48;;;;;;;10.48;4.60;;;40.70;58.20;;;;;;5079629;28;20228;-78
2022/07/03 07:01:15;;;;;;;9.70;3.97;;;40.80;58.20;;;;;;5081002;28;20204;-79
2022/07/03 07:03:44;;;;;;;11.93;4.90;;;;;;;;;;5082361;28;20231;-78
2022/07/03 07:06:11;;;;;;;11.38;4.20;;;40.70;56.20;;;;;;5081656;28;20681;-79
2022/07/03 07:08:38;;;;;;;11.52;4.43;;;40.30;56.50;;;;;;5084263;28;20722;-79
2022/07/03 07:11:05;;;;;;;13.30;5.63;;;40.20;56.80;;;;;;5089328;28;20200;-79
2022/07/03 07:13:32;;;;;;;8.23;4.20;;;40.30;55.80;;;;;;5086861;28;20227;-79
2022/07/03 07:15:59;;;;;;;13.73;4.25;;;40.20;53.90;;;;;;5091817;28;20208;-79
2022/07/03 07:18:26;;;;;;;9.38;3.92;;;39.70;55.70;;;;;;5086870;28;20215;-80
2022/07/03 07:20:54;;;;;;;9.60;4.10;;;39.80;54.10;;;;;;5087489;28;20230;-80
2022/07/03 07:23:21;;;;;;;10.75;4.13;;;39.80;52.80;;;;;;5085876;28;20202;-80
2022/07/03 07:25:48;;;;;;;9.57;4.28;;;39.50;52.80;;;;;;5085726;28;20219;-78
2022/07/03 07:28:15;;;;;;;11.63;5.07;;;39.50;53.00;;;;;;5091615;28;20228;-81
2022/07/03 07:30:43;;;;;;;10.25;4.35;;;39.70;53.60;;;;;;5094352;28;20212;-79
2022/07/03 07:33:10;;;;;;;8.50;3.97;;;39.80;53.00;;;;;;5101734;28;20224;-79
2022/07/03 07:35:37;;;;;;;13.55;4.40;;;38.90;52.20;;;;;;5097580;28;20207;-78
2022/07/03 07:38:06;;;;;;;10.23;4.30;;;38.10;52.80;;;;;;5096361;28;21440;-78
2022/07/03 07:40:33;;;;;;;12.15;4.47;;;38.10;52.70;;;;;;5107041;28;20235;-77
2022/07/03 07:43:00;;;;;;;10.25;4.43;;;37.50;53.60;;;;;;5083521;28;20207;-78
2022/07/03 07:45:26;;;;;;;8.32;3.70;;;37.60;54.30;;;;;;5083405;28;21653;-78
2022/07/03 07:47:53;;;;;;;9.52;3.30;;;38.00;53.30;;;;;;5077329;28;20212;-78
2022/07/03 07:50:20;;;;;;;10.90;4.10;;;38.00;53.50;;;;;;5079372;28;20212;-78
2022/07/03 07:52:47;;;;;;;8.15;3.85;;;37.90;53.50;;;;;;5083875;28;20212;-78
2022/07/03 07:55:16;;;;;;;12.38;5.05;;;37.70;53.50;;;;;;5088128;28;20211;-78
2022/07/03 07:57:45;;;;;;;13.00;5.47;;;37.60;53.60;;;;;;5090444;28;20660;-78
2022/07/03 08:00:14;;;;;;;11.68;5.65;;;37.50;53.10;;;;;;5080401;28;20269;-78
2022/07/03 08:05:38;;;;;;;10.27;5.20;;;37.30;54.00;;;;;;5083669;28;20562;-79
2022/07/03 08:08:07;;;;;;;13.32;6.43;;;37.00;53.00;;;;;;5081838;28;20755;-78
2022/07/03 08:10:38;;;;;;;18.40;7.93;;;36.90;53.10;;;;;;5082876;28;20219;-78
2022/07/03 08:13:05;;;;;;;12.50;5.28;;;35.50;52.80;;;;;;5081182;28;20214;-78
2022/07/03 08:15:32;;;;;;;14.18;5.60;;;36.30;54.20;;;;;;5083193;28;20238;-78
2022/07/03 08:17:59;;;;;;;16.95;6.05;;;36.20;54.50;;;;;;5083722;28;20318;-78
2022/07/03 08:20:26;;;;;;;10.20;4.93;;;36.20;54.60;;;;;;5084113;28;20226;-78
2022/07/03 08:22:53;;;;;;;18.42;5.68;;;36.30;54.40;;;;;;5082225;28;20215;-78
2022/07/03 08:25:20;;;;;;;11.60;4.80;;;36.20;54.50;;;;;;5092870;28;20202;-78
2022/07/03 08:27:49;;;;;;;11.70;4.57;;;36.20;54.20;;;;;;5083273;28;20280;-77
2022/07/03 08:30:17;;;;;;;13.43;5.10;;;36.10;54.60;;;;;;5087845;28;20287;-79
2022/07/03 08:32:45;;;;;;;10.45;4.22;;;36.10;54.90;;;;;;5089995;28;20210;-79
2022/07/03 08:35:12;;;;;;;11.10;4.82;;;;;;;;;;5080735;28;20228;-79
2022/07/03 08:37:42;;;;;;;14.90;5.50;;;36.00;54.60;;;;;;5099368;28;20224;-81
2022/07/03 08:40:11;;;;;;;13.23;4.97;;;35.80;54.40;;;;;;5082243;28;20300;-80
2022/07/03 08:42:41;;;;;;;10.80;4.68;;;35.60;55.40;;;;;;5079067;28;20586;-80
2022/07/03 08:45:14;;;;;;;11.40;4.38;;;35.60;54.90;;;;;;5079890;28;20199;-80
2022/07/03 08:47:42;;;;;;;15.55;4.82;;;35.50;54.30;;;;;;5081421;28;20211;-79
2022/07/03 08:50:10;;;;;;;14.18;4.95;;;35.50;54.20;;;;;;5078579;28;20231;-79
2022/07/03 08:52:37;;;;;;;12.27;4.55;;;35.40;54.80;;;;;;5076664;28;20215;-80
2022/07/03 08:55:05;;;;;;;14.63;5.72;;;35.30;55.40;;;;;;5074160;28;20232;-81
2022/07/03 08:57:33;;;;;;;13.07;4.60;;;35.10;54.70;;;;;;5075852;28;20202;-80
2022/07/03 09:00:04;;;;;;;14.82;5.88;;;35.10;54.50;;;;;;5075465;28;20219;-80
2022/07/03 09:02:34;;;;;;;12.80;5.07;;;34.90;55.50;;;;;;5086986;28;20291;-80
2022/07/03 09:05:02;;;;;;;12.38;4.70;;;34.70;55.80;;;;;;5083941;28;20243;-80
2022/07/03 09:07:34;;;;;;;14.32;5.18;;;34.60;56.20;;;;;;5080894;28;20204;-80
2022/07/03 09:10:02;;;;;;;11.93;4.72;;;34.40;55.30;;;;;;5094263;28;20238;-79
2022/07/03 09:12:31;;;;;;;8.95;3.80;;;34.40;55.60;;;;;;5079369;28;20218;-81
2022/07/03 09:14:58;;;;;;;13.95;5.20;;;34.00;56.30;;;;;;5079886;28;20226;-79
2022/07/03 09:17:25;;;;;;;14.05;4.97;;;33.60;56.60;;;;;;5079169;28;20589;-78
2022/07/03 09:19:53;;;;;;;15.48;5.18;;;33.40;56.70;;;;;;5081496;28;20475;-78
2022/07/03 09:22:22;;;;;;;17.58;5.22;;;33.20;57.40;;;;;;5080552;28;20219;-79
2022/07/03 09:24:49;;;;;;;14.20;5.30;;;33.20;57.90;;;;;;5083018;28;20203;-79
2022/07/03 09:27:18;;;;;;;14.35;4.60;;;33.10;57.60;;;;;;5084850;28;20740;-78
2022/07/03 09:29:52;;;;;;;11.38;4.63;;;32.60;57.70;;;;;;5085916;28;20616;-77
2022/07/03 09:32:24;;;;;;;13.15;4.85;;;32.60;58.30;;;;;;5087276;28;20207;-77
2022/07/03 09:35:10;;;;;;;11.43;4.57;;;32.20;58.60;;;;;;5110079;28;20227;-78
2022/07/03 09:37:37;;;;;;;13.00;4.90;;;31.80;58.70;;;;;;5093677;28;20214;-77
2022/07/03 09:40:05;;;;;;;14.70;4.72;;;31.60;59.00;;;;;;5087729;28;20227;-77
2022/07/03 09:42:32;;;;;;;12.25;4.53;;;31.40;60.20;;;;;;5087027;28;20220;-78
2022/07/03 09:44:59;;;;;;;14.10;4.95;;;31.60;60.60;;;;;;5092997;28;20221;-78
2022/07/03 09:47:27;;;;;;;11.73;4.18;;;31.40;60.10;;;;;;5087090;28;20290;-77
2022/07/03 09:49:57;;;;;;;12.90;4.47;;;31.20;59.40;;;;;;5086464;28;20344;-77
2022/07/03 09:52:35;;;;;;;13.45;5.35;;;30.80;59.80;;;;;;5086127;28;20679;-79
2022/07/03 09:55:12;;;;;;;11.85;4.75;;;30.10;62.20;;;;;;5087319;28;20231;-78
2022/07/03 09:57:41;;;;;;;12.98;4.57;;;30.00;62.80;;;;;;5087300;28;20215;-77
2022/07/03 10:00:14;;;;;;;14.30;4.95;;;29.80;62.30;;;;;;5084668;28;20244;-77
2022/07/03 10:02:59;;;;;;;13.07;4.25;;;29.60;63.50;;;;;;5086730;28;20206;-78
2022/07/03 10:05:30;;;;;;;16.70;4.13;;;28.90;63.70;;;;;;5098303;28;20750;-78
2022/07/03 10:07:58;;;;;;;;;;;28.40;64.40;;;;;;5089210;28;20080;-79
2022/07/03 10:10:25;;;;;;;;;;;28.30;65.30;;;;;;5093650;28;19935;-78
2022/07/03 10:12:53;;;;;;;;;;;27.80;66.30;;;;;;5092874;28;19928;-77
2022/07/03 10:15:20;;;;;;;;;;;26.90;68.00;;;;;;5086904;28;19924;-78
2022/07/03 10:17:48;;;;;;;;;;;26.50;68.80;;;;;;5104476;28;19951;-78
2022/07/03 10:20:15;;;;;;;;;;;26.30;69.40;;;;;;5101871;28;20423;-78
2022/07/03 10:22:46;;;;;;;;;;;26.30;70.20;;;;;;5095587;28;20570;-76
2022/07/03 10:25:13;;;;;;;;;;;26.10;70.40;;;;;;5088071;28;19939;-77
2022/07/03 10:27:40;;;;;;;;;;;25.90;71.00;;;;;;5081127;28;19932;-77
2022/07/03 10:30:07;;;;;;;;;;;25.80;71.40;;;;;;5083386;28;19928;-76
2022/07/03 10:32:34;;;;;;;;;;;25.80;72.80;;;;;;5083667;28;19924;-77
2022/07/03 10:35:01;;;;;;;;;;;25.80;73.40;;;;;;5088268;28;19924;-78
2022/07/03 10:37:31;;;;;;;;;;;25.70;73.70;;;;;;5085856;28;19924;-76
2022/07/03 10:45:29;;;;;;;;;;;25.90;74.60;;;;;;5083105;28;20322;-77
2022/07/03 10:47:56;;;;;;;;;;;26.10;73.50;;;;;;5081898;28;21039;-77
2022/07/03 10:50:23;;;;;;;;;;;26.10;74.30;;;;;;5078639;28;20101;-78
2022/07/03 10:52:50;;;;;;;;;;;26.20;74.10;;;;;;5078394;28;19930;-78
2022/07/03 10:55:19;;;;;;;;;;;25.50;73.70;;;;;;5082895;28;19959;-76
2022/07/03 10:58:00;;;;;;;;;;;26.30;73.90;;;;;;5080690;28;20043;-78
2022/07/03 11:00:27;;;;;;;;;;;26.30;74.40;;;;;;5082046;28;19923;-75
2022/07/03 11:02:54;;;;;;;;;;;26.40;74.80;;;;;;5073021;28;20393;-76
2022/07/03 11:05:22;;;;;;;;;;;26.20;73.20;;;;;;5080605;28;20368;-76
2022/07/03 11:08:06;;;;;;;;;;;26.20;73.60;;;;;;5083237;28;19928;-76
2022/07/03 11:13:23;;;;;;;;;;;26.20;74.10;;;;;;5083592;28;19982;-78
2022/07/03 11:15:52;;;;;;;;;;;26.20;74.60;;;;;;5079079;28;19920;-79
2022/07/03 11:18:20;;;;;;;;;;;26.30;73.60;;;;;;5079282;28;19930;-79
2022/07/03 11:21:04;;;;;;;;;;;26.40;74.60;;;;;;5085419;28;19935;-81
2022/07/03 11:23:34;;;;;;;;;;;26.40;74.60;;;;;;5076964;28;19924;-78
2022/07/03 11:26:19;;;;;;;;;;;26.50;74.90;;;;;;5085642;28;20534;-78
2022/07/03 11:28:49;;;;;;;;;;;26.60;74.10;;;;;;5086463;28;19932;-80
2022/07/03 11:31:17;;;;;;;;;;;26.70;74.40;;;;;;5074147;28;19969;-78
2022/07/03 11:33:44;;;;;;;;;;;26.70;73.20;;;;;;5073661;28;19930;-78
2022/07/03 11:36:11;;;;;;;;;;;26.60;73.70;;;;;;5073755;28;19925;-79
2022/07/03 11:38:38;;;;;;;;;;;26.70;73.20;;;;;;5080144;28;20323;-78
2022/07/03 11:41:08;;;;;;;;;;;26.80;74.00;;;;;;5081513;28;19927;-78
2022/07/03 11:43:35;;;;;;;;;;;26.80;74.10;;;;;;5077381;28;19920;-78
2022/07/03 11:46:03;;;;;;;;;;;26.90;74.20;;;;;;5073299;28;19928;-78
2022/07/03 11:48:30;;;;;;;;;;;27.10;74.30;;;;;;5078773;28;19927;-78
2022/07/03 11:51:01;;;;;;;;;;;27.30;74.20;;;;;;5091698;28;19927;-78
2022/07/03 11:53:28;;;;;;;;;;;27.70;73.40;;;;;;5087433;28;19925;-80
2022/07/03 11:55:56;;;;;;;;;;;28.00;72.90;;;;;;5088308;28;19920;-79
2022/07/03 11:58:25;;;;;;;;;;;28.50;70.90;;;;;;5079654;28;19924;-78
2022/07/03 12:00:52;;;;;;;;;;;28.60;71.10;;;;;;5084820;28;19924;-79
2022/07/03 12:03:23;;;;;;;;;;;28.70;69.30;;;;;;5087297;28;19921;-79
2022/07/03 12:05:51;;;;;;;;;;;28.60;69.10;;;;;;5092458;28;19924;-79
2022/07/03 12:08:22;;;;;;;;;;;28.50;69.00;;;;;;5091617;28;20035;-82
2022/07/03 12:10:49;;;;;;;;;;;28.50;69.20;;;;;;5096588;28;19924;-81
2022/07/03 12:13:22;;;;;;;;;;;28.40;69.00;;;;;;5097073;28;19927;-79
2022/07/03 12:15:50;;;;;;;;;;;28.30;69.90;;;;;;5091658;28;19924;-79
2022/07/03 12:18:17;;;;;;;;;;;28.10;69.00;;;;;;5089909;28;19924;-79
2022/07/03 12:20:43;;;;;;;;;;;28.10;69.90;;;;;;5081143;28;19928;-79
2022/07/03 12:23:10;;;;;;;;;;;28.10;69.90;;;;;;5082005;28;19977;-80
2022/07/03 12:25:40;;;;;;;;;;;28.20;70.00;;;;;;5085653;28;19920;-79
2022/07/03 12:28:07;;;;;;;;;;;28.20;68.80;;;;;;5093070;28;20155;-78
2022/07/03 12:30:34;;;;;;;;;;;28.20;69.40;;;;;;5082978;28;19925;-80
2022/07/03 12:33:02;;;;;;;;;;;28.20;69.20;;;;;;5075198;28;20305;-80
2022/07/03 12:35:30;;;;;;;;;;;28.20;69.30;;;;;;5090964;28;19926;-80
2022/07/03 12:37:57;;;;;;;;;;;29.40;69.10;;;;;;5091051;28;19944;-79
2022/07/03 12:40:24;;;;;;;;;;;28.30;68.50;;;;;;5083455;28;19928;-79
2022/07/03 12:42:52;;;;;;;;;;;28.40;69.00;;;;;;5083522;28;19953;-80
2022/07/03 12:45:20;;;;;;;;;;;28.60;69.10;;;;;;5087163;28;20029;-79
2022/07/03 12:47:47;;;;;;;;;;;28.80;67.50;;;;;;5083542;28;19936;-82
2022/07/03 12:50:15;;;;;;;;;;;28.80;68.10;;;;;;5084566;28;19928;-81
2022/07/03 12:52:50;;;;;;;;;;;28.90;68.20;;;;;;5095689;27;19981;-80
2022/07/03 12:55:23;;;;;;;;;;;29.00;67.30;;;;;;5081210;28;19934;-78
2022/07/03 13:00:43;;;;;;;;;;;29.10;68.40;;;;;;5085968;28;20105;-80
2022/07/03 13:03:26;;;;;;;;;;;29.10;68.60;;;;;;5085596;28;19928;-82
2022/07/03 13:05:54;;;;;;;;;;;29.10;68.00;;;;;;5090430;28;20503;-79
2022/07/03 13:08:21;;;;;;;;;;;29.10;67.30;;;;;;5093864;28;19927;-80
2022/07/03 13:10:55;;;;;;;;;;;29.10;67.20;;;;;;5089944;28;19928;-78
2022/07/03 13:13:46;;;;;;;;;;;29.20;67.60;;;;;;5096145;28;19940;-76
2022/07/03 13:16:26;;;;;;;;;;;29.30;67.50;;;;;;5098321;28;19929;-76
2022/07/03 13:18:59;;;;;;;;;;;29.00;67.30;;;;;;5094441;28;19965;-77
2022/07/03 13:21:27;;;;;;;;;;;29.10;68.50;;;;;;5091665;28;19920;-78
2022/07/03 13:23:54;;;;;;;;;;;29.40;68.00;;;;;;5079935;28;19959;-78
2022/07/03 13:26:21;;;;;;;;;;;29.50;67.30;;;;;;5088603;28;19920;-79
2022/07/03 13:28:48;;;;;;;;;;;29.30;66.20;;;;;;5088977;28;19952;-79
2022/07/03 13:31:15;;;;;;;;;;;29.30;67.10;;;;;;5080749;28;20285;-78
2022/07/03 13:33:41;;;;;;;;;;;29.30;67.30;;;;;;5086034;28;19928;-77
2022/07/03 13:36:08;;;;;;;;;;;28.90;67.00;;;;;;5080993;28;20386;-77
2022/07/03 13:38:36;;;;;;;;;;;28.90;66.90;;;;;;5082728;28;19924;-79
2022/07/03 13:41:03;;;;;;;;;;;28.90;68.50;;;;;;5089758;28;19908;-78
2022/07/03 13:43:30;;;;;;;;;;;28.80;67.40;;;;;;5080295;28;20434;-78
2022/07/03 13:45:56;;;;;;;;;;;28.70;67.70;;;;;;5081586;28;19947;-78
2022/07/03 13:48:23;;;;;;;;;;;28.50;67.60;;;;;;5082355;28;19928;-78
2022/07/03 13:50:50;;;;;;;;;;;28.50;68.20;;;;;;5075209;28;19928;-77
2022/07/03 13:53:17;;;;;;;;;;;28.50;68.80;;;;;;5080787;28;19928;-78
2022/07/03 13:55:45;;;;;;;;;;;28.50;67.80;;;;;;5081364;28;19928;-78
2022/07/03 13:58:11;;;;;;;;;;;28.40;68.20;;;;;;5080436;28;19934;-77
2022/07/03 14:00:38;;;;;;;;;;;28.50;68.90;;;;;;5082218;28;20107;-78
2022/07/03 14:03:05;;;;;;;;;;;28.60;69.40;;;;;;5091234;28;19931;-77
2022/07/03 14:05:32;;;;;;;;;;;28.60;68.70;;;;;;5093944;28;19935;-75
2022/07/03 14:07:58;;;;;;;;;;;28.50;68.70;;;;;;5084833;28;20016;-76
2022/07/03 14:10:26;;;;;;;;;;;28.50;69.50;;;;;;5087702;28;19934;-78